| time (UTC) | temp F | wind direction | speed MPH | gust MPH | rain 1hr in | rain 24hr in | rain mn in | humidity % | barometer mb |
| 20260506015336 | 71 | 280 | 3.0 | 8.0 | 0.00 | 0.02 | 0.00 | 34 | 1011.7 |
| 20260506014320 | 0 | 285 | 0.0 | 3.0 | 0.00 | 0.02 | 0.00 | ||
| 20260506013318 | 72 | 285 | 2.0 | 4.0 | 0.00 | 0.03 | 0.00 | 32 | 1011.6 |
| 20260506012338 | 71 | 285 | 1.0 | 5.0 | 0.00 | 0.08 | 0.00 | 32 | 1011.8 |
| 20260506011322 | 71 | 8 | 4.0 | 5.0 | 0.00 | 0.12 | 0.00 | 33 | 1011.8 |
| 20260506010322 | 0 | 302 | 1.0 | 6.0 | 0.00 | 0.14 | 0.00 | ||
| 20260506005318 | 70 | 36 | 3.0 | 9.0 | 0.00 | 0.15 | 0.00 | 33 | 1011.8 |
| 20260506004319 | 70 | 344 | 5.0 | 8.0 | 0.00 | 0.21 | 0.00 | 36 | 1011.8 |
| 20260506003338 | 70 | 19 | 4.0 | 8.0 | 0.00 | 0.35 | 0.00 | 35 | 1011.9 |
| 20260506002316 | 71 | 283 | 3.0 | 9.0 | 0.00 | 0.36 | 0.00 | 34 | 1011.8 |
| 20260506001340 | 71 | 51 | 3.0 | 11.0 | 0.00 | 0.36 | 0.00 | 35 | 1011.8 |
| 20260506000317 | 70 | 275 | 3.0 | 9.0 | 0.00 | 0.36 | 0.00 | 35 | 1011.8 |
| 20260505235341 | 70 | 319 | 5.0 | 9.0 | 0.00 | 0.36 | 0.00 | 36 | 1011.8 |
| 20260505234318 | 70 | 319 | 2.0 | 10.0 | 0.00 | 0.36 | 0.00 | 36 | 1011.9 |
| 20260505233337 | 72 | 313 | 5.0 | 8.0 | 0.00 | 0.36 | 0.00 | 35 | 1011.9 |
| 20260505232316 | 0 | 233 | 6.0 | 7.0 | 0.00 | 0.36 | 0.00 | ||
| 20260505231320 | 0 | 233 | 3.0 | 6.0 | 0.00 | 0.36 | 0.00 | ||
| 20260505230319 | 0 | 226 | 4.0 | 7.0 | 0.00 | 0.36 | 0.00 | ||
| 20260505225321 | 0 | 224 | 2.0 | 6.0 | 0.00 | 0.36 | 0.00 | ||
| 20260505224319 | 69 | 218 | 1.0 | 5.0 | 0.00 | 0.36 | 0.00 | 37 | 1012.1 |
| 20260505223337 | 0 | 134 | 3.0 | 8.0 | 0.00 | 0.36 | 0.00 | ||
| 20260505222317 | 67 | 341 | 1.0 | 5.0 | 0.00 | 0.36 | 0.00 | 38 | 1012.4 |
| 20260505221317 | 0 | 219 | 3.0 | 5.0 | 0.00 | 0.36 | 0.00 | ||
| 20260505220316 | 67 | 161 | 1.0 | 8.0 | 0.00 | 0.36 | 0.00 | 40 | 1012.7 |
| 20260505215324 | 67 | 80 | 4.0 | 10.0 | 0.00 | 0.36 | 0.00 | 40 | 1012.8 |
| 20260505214316 | 68 | 353 | 7.0 | 10.0 | 0.00 | 0.36 | 0.00 | 43 | 1012.9 |
| 20260505213320 | 0 | 343 | 2.0 | 7.0 | 0.00 | 0.36 | 0.00 | ||
| 20260505212318 | 0 | 280 | 2.0 | 9.0 | 0.00 | 0.36 | 0.00 | ||
| 20260505211316 | 64 | 307 | 1.0 | 4.0 | 0.00 | 0.36 | 0.00 | 48 | 1013.3 |
| 20260505210320 | 64 | 307 | 1.0 | 6.0 | 0.00 | 0.36 | 0.00 | 46 | 1013.4 |
| 20260505205318 | 0 | 44 | 3.0 | 6.0 | 0.00 | 0.36 | 0.00 | ||
| 20260505204316 | 65 | 276 | 3.0 | 9.0 | 0.00 | 0.36 | 0.00 | 47 | 1013.5 |
| 20260505203319 | 0 | 280 | 4.0 | 5.0 | 0.00 | 0.36 | 0.00 | ||
| 20260505202320 | 66 | 273 | 6.0 | 8.0 | 0.00 | 0.36 | 0.00 | 46 | 1013.6 |
| 20260505201320 | 65 | 150 | 3.0 | 7.0 | 0.00 | 0.38 | 0.00 | 48 | 1013.6 |
| 20260505200317 | 63 | 196 | 5.0 | 8.0 | 0.00 | 0.41 | 0.00 | 52 | 1013.7 |
| 20260505195341 | 63 | 95 | 5.0 | 9.0 | 0.00 | 0.41 | 0.00 | 53 | 1013.8 |
| 20260505194317 | 63 | 119 | 4.0 | 8.0 | 0.00 | 0.41 | 0.00 | 51 | 1013.8 |
| 20260505193346 | 62 | 352 | 3.0 | 9.0 | 0.00 | 0.41 | 0.00 | 58 | 1013.9 |
| 20260505192320 | 0 | 65 | 2.0 | 9.0 | 0.00 | 0.41 | 0.00 | ||
| 20260505191317 | 61 | 288 | 2.0 | 6.0 | 0.00 | 0.41 | 0.00 | 56 | 1013.9 |
| 20260505190401 | 60 | 290 | 2.0 | 5.0 | 0.00 | 0.41 | 0.00 | 58 | 1013.8 |
| 20260505185337 | 59 | 169 | 3.0 | 6.0 | 0.00 | 0.41 | 0.00 | 57 | 1013.9 |
| 20260505184319 | 59 | 80 | 2.0 | 4.0 | 0.00 | 0.41 | 0.00 | 60 | 1013.9 |
| 20260505183320 | 59 | 179 | 2.0 | 5.0 | 0.00 | 0.41 | 0.00 | 61 | 1014.0 |
| 20260505182318 | 0 | 172 | 2.0 | 5.0 | 0.00 | 0.41 | 0.00 | ||
| 20260505181320 | 57 | 175 | 1.0 | 6.0 | 0.00 | 0.41 | 0.00 | 64 | 1013.9 |
| 20260505180339 | 57 | 175 | 2.0 | 6.0 | 0.00 | 0.41 | 0.00 | 63 | 1013.8 |
| 20260505175324 | 57 | 150 | 1.0 | 6.0 | 0.00 | 0.41 | 0.00 | 66 | 1013.8 |
| 20260505174317 | 57 | 151 | 5.0 | 6.0 | 0.00 | 0.41 | 0.00 | 63 | 1013.7 |
| 20260505173321 | 57 | 0.0 | 6.0 | 0.00 | 0.41 | 0.00 | 65 | 1013.6 | |
| 20260505172320 | 57 | 229 | 4.0 | 6.0 | 0.00 | 0.41 | 0.00 | 63 | 1013.4 |
| 20260505171322 | 57 | 230 | 2.0 | 4.0 | 0.00 | 0.41 | 0.00 | 65 | 1013.5 |
| 20260505170321 | 55 | 230 | 1.0 | 5.0 | 0.00 | 0.41 | 0.00 | 70 | 1013.4 |
| 20260505165320 | 54 | 180 | 0.0 | 4.0 | 0.00 | 0.41 | 0.00 | 70 | 1013.4 |
| 20260505164344 | 54 | 180 | 0.0 | 4.0 | 0.00 | 0.41 | 0.00 | 71 | 1013.4 |
| 20260505163318 | 53 | 0.0 | 2.0 | 0.00 | 0.41 | 0.00 | 74 | 1013.4 | |
| 20260505162321 | 52 | 0.0 | 1.0 | 0.00 | 0.42 | 0.00 | 75 | 1013.3 | |
| 20260505161321 | 51 | 0.0 | 2.0 | 0.00 | 0.43 | 0.00 | 77 | 1013.2 | |
| 20260505160320 | 0 | 0.0 | 2.0 | 0.00 | 0.43 | 0.00 | |||
| 20260505153342 | 49 | 0.0 | 2.0 | 0.00 | 0.44 | 0.00 | 79 | 1012.9 | |
| 20260505152317 | 49 | 181 | 0.0 | 1.0 | 0.00 | 0.44 | 0.00 | 80 | 1012.7 |
| 20260505151317 | 0 | 181 | 0.0 | 2.0 | 0.00 | 0.44 | 0.00 | ||
| 20260505150320 | 0 | 0.0 | 3.0 | 0.00 | 0.44 | 0.00 | |||
| 20260505140320 | 48 | 165 | 0.0 | 2.0 | 0.00 | 0.44 | 0.00 | 83 | 1012.2 |
| 20260505124320 | 0 | 283 | 2.0 | 4.0 | 0.00 | 0.44 | 0.00 | ||
| 20260505123316 | 47 | 314 | 1.0 | 4.0 | 0.00 | 0.44 | 0.00 | 83 | 1011.2 |
| 20260505122341 | 47 | 278 | 1.0 | 2.0 | 0.00 | 0.44 | 0.00 | 86 | 1011.3 |
| 20260505121321 | 47 | 278 | 1.0 | 3.0 | 0.00 | 0.44 | 0.00 | 84 | 1011.3 |
| 20260505120338 | 47 | 278 | 0.0 | 2.0 | 0.00 | 0.44 | 0.00 | 85 | 1011.3 |
| 20260505115321 | 0 | 0.0 | 2.0 | 0.00 | 0.44 | 0.00 | |||
| 20260505114320 | 0 | 0.0 | 0.0 | 0.00 | 0.44 | 0.00 | |||
| 20260505113317 | 0 | 0.0 | 3.0 | 0.00 | 0.44 | 0.00 | |||
| 20260505112319 | 0 | 0.0 | 4.0 | 0.00 | 0.44 | 0.00 | |||
| 20260505111316 | 46 | 278 | 1.0 | 2.0 | 0.00 | 0.44 | 0.00 | 85 | 1011.3 |
| 20260505110319 | 0 | 0.0 | 0.0 | 0.00 | 0.44 | 0.00 | |||
| 20260505101341 | 0 | 278 | 1.0 | 2.0 | 0.00 | 0.44 | 0.00 | ||
| 20260505100341 | 46 | 0.0 | 1.0 | 0.00 | 0.44 | 0.00 | 82 | 1011.6 | |
| 20260505095326 | 46 | 0.0 | 1.0 | 0.00 | 0.44 | 0.00 | 84 | 1011.7 | |
| 20260505094340 | 46 | 278 | 0.0 | 4.0 | 0.00 | 0.44 | 0.00 | 81 | 1011.7 |
| 20260505093320 | 0 | 278 | 1.0 | 3.0 | 0.00 | 0.44 | 0.00 | ||
| 20260505092318 | 0 | 278 | 1.0 | 6.0 | 0.00 | 0.44 | 0.00 | ||
| 20260505091323 | 46 | 300 | 3.0 | 6.0 | 0.00 | 0.44 | 0.00 | 81 | 1011.8 |
| 20260505090343 | 46 | 284 | 1.0 | 2.0 | 0.00 | 0.44 | 0.00 | 82 | 1011.9 |
| 20260505085321 | 46 | 0.0 | 0.0 | 0.00 | 0.44 | 0.00 | 82 | 1011.9 | |
| 20260505084343 | 0 | 0.0 | 0.0 | 0.00 | 0.44 | 0.00 | |||
| 20260505083317 | 46 | 0.0 | 4.0 | 0.00 | 0.44 | 0.00 | 82 | 1012.1 | |
| 20260505082342 | 46 | 284 | 3.0 | 7.0 | 0.00 | 0.44 | 0.00 | 81 | 1012.2 |
| 20260505081322 | 0 | 288 | 5.0 | 8.0 | 0.00 | 0.44 | 0.00 | ||
| 20260505080341 | 45 | 244 | 3.0 | 6.0 | 0.00 | 0.44 | 0.00 | 85 | 1012.3 |
| 20260505075343 | 45 | 244 | 2.0 | 5.0 | 0.00 | 0.44 | 0.00 | 86 | 1012.4 |
| 20260505074318 | 45 | 0.0 | 6.0 | 0.00 | 0.44 | 0.00 | 84 | 1012.5 | |
| 20260505073318 | 45 | 244 | 3.0 | 4.0 | 0.00 | 0.44 | 0.00 | 83 | 1012.3 |
| 20260505072325 | 45 | 244 | 1.0 | 5.0 | 0.00 | 0.44 | 0.00 | 81 | 1012.6 |
| 20260505071319 | 45 | 244 | 3.0 | 5.0 | 0.00 | 0.44 | 0.00 | 83 | 1012.6 |
| 20260505070339 | 45 | 244 | 1.0 | 2.0 | 0.00 | 0.44 | 0.00 | 84 | 1012.3 |
| 20260505065321 | 45 | 0.0 | 2.0 | 0.00 | 0.44 | 0.44 | 85 | 1012.3 | |
| 20260505064318 | 45 | 244 | 1.0 | 2.0 | 0.00 | 0.44 | 0.44 | 84 | 1012.1 |
| 20260505063340 | 46 | 244 | 0.0 | 4.0 | 0.00 | 0.44 | 0.44 | 82 | 1011.8 |
| 20260505062319 | 46 | 244 | 1.0 | 4.0 | 0.00 | 0.44 | 0.44 | 81 | 1011.6 |
| 20260505061321 | 46 | 244 | 2.0 | 7.0 | 0.00 | 0.44 | 0.44 | 80 | 1011.4 |
| 20260505060330 | 46 | 244 | 3.0 | 13.0 | 0.00 | 0.44 | 0.44 | 79 | 1011.5 |
| 20260505055319 | 46 | 230 | 6.0 | 13.0 | 0.00 | 0.44 | 0.44 | 79 | 1011.6 |
| 20260505054339 | 0 | 254 | 5.0 | 18.0 | 0.00 | 0.44 | 0.44 | ||
| 20260505053336 | 46 | 241 | 7.0 | 18.0 | 0.00 | 0.44 | 0.44 | 79 | 1011.9 |
| 20260505052316 | 0 | 250 | 5.0 | 17.0 | 0.01 | 0.44 | 0.44 | ||
| 20260505051318 | 0 | 262 | 5.0 | 12.0 | 0.01 | 0.44 | 0.44 | ||
| 20260505050317 | 0 | 271 | 1.0 | 7.0 | 0.01 | 0.44 | 0.44 | ||
| 20260505041340 | 46 | 236 | 2.0 | 11.0 | 0.00 | 0.43 | 0.43 | 81 | 1011.6 |
| 20260505040321 | 0 | 233 | 6.0 | 11.0 | 0.00 | 0.43 | 0.43 | ||
| 20260505035320 | 47 | 245 | 8.0 | 12.0 | 0.00 | 0.43 | 0.43 | 82 | 1011.9 |
| 20260505034340 | 0 | 269 | 5.0 | 17.0 | 0.01 | 0.43 | 0.43 | ||
| 20260505033343 | 45 | 273 | 12.0 | 20.0 | 0.01 | 0.43 | 0.43 | 82 | 1011.3 |
| 20260505032318 | 45 | 264 | 7.0 | 24.0 | 0.01 | 0.43 | 0.43 | 83 | 1011.1 |
| 20260505031316 | 45 | 250 | 14.0 | 21.0 | 0.01 | 0.43 | 0.43 | 82 | 1011.1 |
| 20260505030403 | 45 | 244 | 11.0 | 23.0 | 0.01 | 0.43 | 0.43 | 82 | 1011.5 |
| 20260505025339 | 46 | 241 | 13.0 | 23.0 | 0.01 | 0.43 | 0.43 | 81 | 1011.0 |
| 20260505024320 | 47 | 247 | 13.0 | 21.0 | 0.00 | 0.42 | 0.42 | 79 | 1011.9 |
| 20260505023319 | 0 | 253 | 6.0 | 23.0 | 0.01 | 0.42 | 0.42 | ||
| 20260505022316 | 46 | 247 | 11.0 | 18.0 | 0.06 | 0.42 | 0.42 | 83 | 1011.2 |
| 20260505021339 | 46 | 277 | 11.0 | 26.0 | 0.10 | 0.42 | 0.42 | 83 | 1010.8 |
| 20260505020316 | 47 | 271 | 11.0 | 29.0 | 0.12 | 0.42 | 0.42 | 83 | 1010.7 |